CheckWX is a tool to help pilots better visualize weather data.  It is not intended as a substitute for an official pre-flight weather briefing.

19:07:47 UTC

CYDP METAR
Nain Airport
Nain, Canada
Current

1 hour ago

CYDP 231800Z 30027G35KT 15SM SKC M18/M25 A2988 RMK SLP120
Observed
Feb-23 @ 18:00 UTC
Wind
  • 300° at 27 KTS
  • Gusting to 35 KTS
Visibility
15 SM
Flight Rules
VFR
Cloud Levels
  • Clear skies
Temperature
-18°C / -0°F
Dewpoint
-25°C / -13°F
Humidity
54%
Altimeter
29.88" Hg
Pressure
1012 hPa
Previous

2 hours ago

CYDP 231700Z 29018G25KT 15SM FEW110 M18/M26 A2988 RMK AC1 TR AC SLP120
Observed
Feb-23 @ 17:00 UTC
Wind
  • 290° at 18 KTS
  • Gusting to 25 KTS
Visibility
15 SM
Flight Rules
VFR
Cloud Levels
  • Few at 11,000' AGL
Temperature
-18°C / -0°F
Dewpoint
-26°C / -15°F
Humidity
50%
Altimeter
29.88" Hg
Pressure
1012 hPa
Previous

3 hours ago

CYDP 231600Z 30026KT 15SM FEW110 M18/M25 A2987 RMK AC1 AC TR SLP116
Observed
Feb-23 @ 16:00 UTC
Wind
  • 300° at 26 KTS
Visibility
15 SM
Flight Rules
VFR
Cloud Levels
  • Few at 11,000' AGL
Temperature
-18°C / -0°F
Dewpoint
-25°C / -13°F
Humidity
54%
Altimeter
29.87" Hg
Pressure
1011.6 hPa